Fowlston, Georgia
Current Conditions -  °F | °C
As of 3:55 PM on Sunday 23 Nov 2014 (Local Time) from K2J9 Reporting Station
Overcast Overcast  
Wind Chill: 22°   Ceiling: 800
Heat Index: 22°   Visibility: 8mi
Dew Point: 22°   Wind: 15mph
Humidity: 100%   Direction: 200°SSW
Pressure: 29.8"   Gusts: 21mph
Location:  30.79°N, 84.55°W
Report Text: K2J9 231955Z AUTO 20013G18KT 8SM BKN008 OVC016 22/22 A2980 RMK AO1 P0448
Loading
Personal Weather Stations






























Interactive Weather Map New forecast layout! Learn more

10-Day Weather Forecast

Advertisements
Track Severe Weather on mobile